sensor_id;sensor_type;location;lat;lon;timestamp;temperature;humidity
63407;SHT31;49543;45.892;10.838;2022-08-18T06:14:43;23.15;87.51
63407;SHT31;49543;45.892;10.838;2022-08-18T06:17:30;23.13;87.36
63407;SHT31;49543;45.892;10.838;2022-08-18T06:20:16;23.12;87.63
63407;SHT31;49543;45.892;10.838;2022-08-18T06:23:01;23.16;87.64
63407;SHT31;49543;45.892;10.838;2022-08-18T06:28:06;23.16;87.81
63407;SHT31;49543;45.892;10.838;2022-08-18T06:35:50;23.12;88.20
63407;SHT31;49543;45.892;10.838;2022-08-18T06:43:42;23.12;88.15
63407;SHT31;49543;45.892;10.838;2022-08-18T06:46:16;23.17;88.30
63407;SHT31;49543;45.892;10.838;2022-08-18T06:48:53;23.20;88.19
63407;SHT31;49543;45.892;10.838;2022-08-18T06:51:20;23.24;88.46
63407;SHT31;49543;45.892;10.838;2022-08-18T06:54:07;23.34;88.71
63407;SHT31;49543;45.892;10.838;2022-08-18T06:56:50;23.33;86.96
63407;SHT31;49543;45.892;10.838;2022-08-18T06:59:32;23.28;88.91
63407;SHT31;49543;45.892;10.838;2022-08-18T07:02:20;23.31;89.05
63407;SHT31;49543;45.892;10.838;2022-08-18T07:05:05;23.37;88.61
63407;SHT31;49543;45.892;10.838;2022-08-18T07:07:39;23.43;88.18
63407;SHT31;49543;45.892;10.838;2022-08-18T07:10:32;23.49;87.59
63407;SHT31;49543;45.892;10.838;2022-08-18T07:15:37;23.30;89.03
63407;SHT31;49543;45.892;10.838;2022-08-18T07:18:05;23.36;88.80
63407;SHT31;49543;45.892;10.838;2022-08-18T07:20:43;23.28;88.10
63407;SHT31;49543;45.892;10.838;2022-08-18T07:23:20;23.19;87.87
63407;SHT31;49543;45.892;10.838;2022-08-18T07:25:50;23.16;88.91
63407;SHT31;49543;45.892;10.838;2022-08-18T07:31:14;23.12;89.43
63407;SHT31;49543;45.892;10.838;2022-08-18T07:33:41;23.17;88.37
63407;SHT31;49543;45.892;10.838;2022-08-18T07:36:08;23.12;88.92
63407;SHT31;49543;45.892;10.838;2022-08-18T07:38:41;23.02;88.76
63407;SHT31;49543;45.892;10.838;2022-08-18T07:47:05;22.99;89.70
63407;SHT31;49543;45.892;10.838;2022-08-18T07:49:35;22.96;90.23
63407;SHT31;49543;45.892;10.838;2022-08-18T07:52:24;22.91;89.97
63407;SHT31;49543;45.892;10.838;2022-08-18T07:55:11;22.95;90.35
63407;SHT31;49543;45.892;10.838;2022-08-18T07:58:24;23.00;92.96
63407;SHT31;49543;45.892;10.838;2022-08-18T08:00:53;22.88;93.24
63407;SHT31;49543;45.892;10.838;2022-08-18T08:03:39;22.65;92.22
63407;SHT31;49543;45.892;10.838;2022-08-18T08:12:01;22.27;92.05
63407;SHT31;49543;45.892;10.838;2022-08-18T08:22:22;22.21;91.81
63407;SHT31;49543;45.892;10.838;2022-08-18T08:27:50;22.33;89.61
63407;SHT31;49543;45.892;10.838;2022-08-18T08:30:19;22.31;89.63
63407;SHT31;49543;45.892;10.838;2022-08-18T08:33:09;22.44;90.04
63407;SHT31;49543;45.892;10.838;2022-08-18T08:38:20;22.51;90.37
63407;SHT31;49543;45.892;10.838;2022-08-18T08:40:56;22.50;90.68
63407;SHT31;49543;45.892;10.838;2022-08-18T08:43:30;22.57;91.16
63407;SHT31;49543;45.892;10.838;2022-08-18T08:46:02;22.62;91.22
63407;SHT31;49543;45.892;10.838;2022-08-18T08:48:32;22.67;91.25
63407;SHT31;49543;45.892;10.838;2022-08-18T08:51:04;22.69;91.90
63407;SHT31;49543;45.892;10.838;2022-08-18T08:53:37;22.82;92.19
63407;SHT31;49543;45.892;10.838;2022-08-18T08:56:08;22.84;91.31
63407;SHT31;49543;45.892;10.838;2022-08-18T08:58:44;22.99;90.81
63407;SHT31;49543;45.892;10.838;2022-08-18T09:01:39;23.07;91.03
63407;SHT31;49543;45.892;10.838;2022-08-18T09:04:14;23.17;90.36
63407;SHT31;49543;45.892;10.838;2022-08-18T09:09:17;23.30;90.94
63407;SHT31;49543;45.892;10.838;2022-08-18T09:12:09;23.36;91.13
63407;SHT31;49543;45.892;10.838;2022-08-18T09:23:10;23.27;89.86
63407;SHT31;49543;45.892;10.838;2022-08-18T09:36:34;23.51;88.47
63407;SHT31;49543;45.892;10.838;2022-08-18T09:39:36;23.63;89.25
63407;SHT31;49543;45.892;10.838;2022-08-18T09:42:36;23.74;90.15
63407;SHT31;49543;45.892;10.838;2022-08-18T09:45:06;23.81;89.98
63407;SHT31;49543;45.892;10.838;2022-08-18T09:52:48;23.92;89.37
63407;SHT31;49543;45.892;10.838;2022-08-18T09:57:42;23.88;90.28
63407;SHT31;49543;45.892;10.838;2022-08-18T10:08:23;23.71;88.62
63407;SHT31;49543;45.892;10.838;2022-08-18T10:10:53;23.65;89.27
63407;SHT31;49543;45.892;10.838;2022-08-18T10:14:02;23.64;89.73
63407;SHT31;49543;45.892;10.838;2022-08-18T10:16:57;23.49;90.06
63407;SHT31;49543;45.892;10.838;2022-08-18T10:19:36;23.44;89.33
63407;SHT31;49543;45.892;10.838;2022-08-18T10:22:08;23.47;88.99
63407;SHT31;49543;45.892;10.838;2022-08-18T10:24:55;23.40;87.73
63407;SHT31;49543;45.892;10.838;2022-08-18T10:27:53;23.39;88.42
63407;SHT31;49543;45.892;10.838;2022-08-18T10:33:04;23.22;87.48
63407;SHT31;49543;45.892;10.838;2022-08-18T10:38:22;23.12;89.08
63407;SHT31;49543;45.892;10.838;2022-08-18T10:40:59;23.00;88.45
63407;SHT31;49543;45.892;10.838;2022-08-18T10:43:45;22.95;87.76
63407;SHT31;49543;45.892;10.838;2022-08-18T10:46:20;22.91;87.34
63407;SHT31;49543;45.892;10.838;2022-08-18T10:49:20;22.85;87.88
63407;SHT31;49543;45.892;10.838;2022-08-18T10:55:08;22.85;89.14
63407;SHT31;49543;45.892;10.838;2022-08-18T10:58:01;22.84;90.00
63407;SHT31;49543;45.892;10.838;2022-08-18T11:00:54;22.62;88.62
63407;SHT31;49543;45.892;10.838;2022-08-18T11:03:33;22.57;88.90
63407;SHT31;49543;45.892;10.838;2022-08-18T11:06:06;22.57;89.10
63407;SHT31;49543;45.892;10.838;2022-08-18T11:08:42;22.58;89.33
63407;SHT31;49543;45.892;10.838;2022-08-18T11:11:10;22.65;89.86
63407;SHT31;49543;45.892;10.838;2022-08-18T11:16:29;22.68;90.37
63407;SHT31;49543;45.892;10.838;2022-08-18T11:19:14;22.62;91.69
63407;SHT31;49543;45.892;10.838;2022-08-18T11:21:43;22.50;91.98
63407;SHT31;49543;45.892;10.838;2022-08-18T11:26:48;22.30;91.42
63407;SHT31;49543;45.892;10.838;2022-08-18T11:29:49;22.31;92.16
63407;SHT31;49543;45.892;10.838;2022-08-18T11:32:29;22.23;93.09
63407;SHT31;49543;45.892;10.838;2022-08-18T11:37:48;22.30;92.86
63407;SHT31;49543;45.892;10.838;2022-08-18T11:40:36;22.37;93.07
63407;SHT31;49543;45.892;10.838;2022-08-18T16:55:26;23.63;87.93
63407;SHT31;49543;45.892;10.838;2022-08-18T16:57:52;23.65;88.14
63407;SHT31;49543;45.892;10.838;2022-08-18T17:00:36;23.68;87.90
63407;SHT31;49543;45.892;10.838;2022-08-18T17:03:21;23.68;88.12
63407;SHT31;49543;45.892;10.838;2022-08-18T17:06:11;23.53;87.64
63407;SHT31;49543;45.892;10.838;2022-08-18T17:08:38;23.57;87.63
63407;SHT31;49543;45.892;10.838;2022-08-18T17:11:07;23.60;88.01
63407;SHT31;49543;45.892;10.838;2022-08-18T17:13:34;23.44;87.70
63407;SHT31;49543;45.892;10.838;2022-08-18T17:16:01;23.39;87.77
63407;SHT31;49543;45.892;10.838;2022-08-18T17:18:26;23.31;87.50
63407;SHT31;49543;45.892;10.838;2022-08-18T17:20:53;23.34;87.55
63407;SHT31;49543;45.892;10.838;2022-08-18T17:23:19;23.33;87.15
63407;SHT31;49543;45.892;10.838;2022-08-18T17:25:45;23.20;87.76
63407;SHT31;49543;45.892;10.838;2022-08-18T17:28:14;23.17;87.40
63407;SHT31;49543;45.892;10.838;2022-08-18T17:30:46;23.17;87.31
63407;SHT31;49543;45.892;10.838;2022-08-18T17:33:15;23.17;85.82
63407;SHT31;49543;45.892;10.838;2022-08-18T17:35:45;23.24;85.48
63407;SHT31;49543;45.892;10.838;2022-08-18T17:38:37;23.16;87.10
63407;SHT31;49543;45.892;10.838;2022-08-18T17:41:04;23.13;87.87
63407;SHT31;49543;45.892;10.838;2022-08-18T17:43:35;23.13;87.75
63407;SHT31;49543;45.892;10.838;2022-08-18T17:46:17;23.20;87.48
63407;SHT31;49543;45.892;10.838;2022-08-18T17:49:16;23.13;87.80
63407;SHT31;49543;45.892;10.838;2022-08-18T17:51:49;23.10;87.86
63407;SHT31;49543;45.892;10.838;2022-08-18T17:54:21;23.03;88.35
63407;SHT31;49543;45.892;10.838;2022-08-18T17:57:04;22.99;86.87
63407;SHT31;49543;45.892;10.838;2022-08-18T18:02:21;22.76;83.69
63407;SHT31;49543;45.892;10.838;2022-08-18T18:04:48;22.89;82.92
63407;SHT31;49543;45.892;10.838;2022-08-18T18:07:29;22.99;85.22
